UAL1010 KEWR-CYHZ
Flight info
| Callsign | UAL1010 |
|---|---|
| Flight time | 1h 18m |
| Altitude | 41000 |
| Route | MERIT DCT HFD DCT PUT DCT ENE Q822 ALLEX FUNDY5 |
| Aircraft | A359/H-SDE2E3GHIJ3J4J5LM1ORWXY/LB1D1 |
Departure
| Time | 2026-04-30 03:42 |
|---|---|
| Airport | Newark Liberty International Airport (KEWR) |
Arrival
| Time | 2026-04-30 05:01 |
|---|---|
| Airport | Halifax / Stanfield International Airport (CYHZ) |
| Time | Latitude | Longitude | Altitude | Speed | Heading |
|---|---|---|---|---|---|
| 2026-04-30 03:14 | 40.68764 | -74.17586 | 29 ft | 0 kts | 296° |
| 2026-04-30 03:28 | 40.68770 | -74.17602 | 28 ft | 4 kts | 296° |
| 2026-04-30 03:28 | 40.68782 | -74.17635 | 28 ft | 1 kts | 296° |
| 2026-04-30 03:29 | 40.68791 | -74.17659 | 28 ft | 3 kts | 296° |
| 2026-04-30 03:29 | 40.68764 | -74.17586 | 29 ft | 0 kts | 296° |
| 2026-04-30 03:30 | 40.68760 | -74.17577 | 28 ft | 1 kts | 296° |
| 2026-04-30 03:30 | 40.68756 | -74.17567 | 28 ft | 1 kts | 296° |
| 2026-04-30 03:31 | 40.68752 | -74.17556 | 28 ft | 1 kts | 296° |
| 2026-04-30 03:31 | 40.68748 | -74.17544 | 28 ft | 2 kts | 296° |
| 2026-04-30 03:31 | 40.68740 | -74.17523 | 28 ft | 3 kts | 309° |
| 2026-04-30 03:31 | 40.68727 | -74.17508 | 29 ft | 2 kts | 326° |
| 2026-04-30 03:32 | 40.68712 | -74.17496 | 29 ft | 3 kts | 351° |
| 2026-04-30 03:32 | 40.68705 | -74.17494 | 29 ft | 0 kts | 6° |
| 2026-04-30 03:32 | 40.68700 | -74.17494 | 29 ft | 3 kts | 18° |
| 2026-04-30 03:33 | 40.68690 | -74.17500 | 29 ft | 0 kts | 24° |
| 2026-04-30 03:35 | 40.68691 | -74.17499 | 29 ft | 1 kts | 25° |
| 2026-04-30 03:35 | 40.68737 | -74.17463 | 29 ft | 11 kts | 29° |
| 2026-04-30 03:36 | 40.68818 | -74.17410 | 28 ft | 14 kts | 26° |
| 2026-04-30 03:36 | 40.68912 | -74.17351 | 28 ft | 17 kts | 25° |
| 2026-04-30 03:36 | 40.69018 | -74.17284 | 28 ft | 17 kts | 25° |
| 2026-04-30 03:36 | 40.69123 | -74.17217 | 28 ft | 17 kts | 26° |
| 2026-04-30 03:37 | 40.69228 | -74.17150 | 28 ft | 17 kts | 26° |
| 2026-04-30 03:37 | 40.69306 | -74.17082 | 28 ft | 8 kts | 48° |
| 2026-04-30 03:37 | 40.69361 | -74.16984 | 28 ft | 20 kts | 47° |
| 2026-04-30 03:37 | 40.69466 | -74.16880 | 29 ft | 19 kts | 27° |
| 2026-04-30 03:38 | 40.69581 | -74.16809 | 28 ft | 19 kts | 25° |
| 2026-04-30 03:38 | 40.69710 | -74.16726 | 28 ft | 22 kts | 26° |
| 2026-04-30 03:38 | 40.69853 | -74.16633 | 27 ft | 23 kts | 26° |
| 2026-04-30 03:38 | 40.69994 | -74.16542 | 27 ft | 22 kts | 26° |
| 2026-04-30 03:39 | 40.70126 | -74.16478 | 27 ft | 16 kts | 6° |
| 2026-04-30 03:39 | 40.70192 | -74.16470 | 27 ft | 2 kts | 5° |
| 2026-04-30 03:39 | 40.70232 | -74.16465 | 28 ft | 15 kts | 8° |
| 2026-04-30 03:39 | 40.70282 | -74.16406 | 28 ft | 4 kts | 84° |
| 2026-04-30 03:40 | 40.70281 | -74.16394 | 28 ft | 1 kts | 95° |
| 2026-04-30 03:40 | 40.70274 | -74.16298 | 28 ft | 16 kts | 95° |
| 2026-04-30 03:40 | 40.70254 | -74.16233 | 28 ft | 2 kts | 154° |
| 2026-04-30 03:40 | 40.70224 | -74.16239 | 27 ft | 6 kts | 197° |
| 2026-04-30 03:41 | 40.70222 | -74.16241 | 27 ft | 0 kts | 204° |
| 2026-04-30 03:41 | 40.70221 | -74.16242 | 27 ft | 1 kts | 205° |
| 2026-04-30 03:41 | 40.70218 | -74.16244 | 27 ft | 1 kts | 205° |
| 2026-04-30 03:42 | 40.70066 | -74.16340 | 26 ft | 61 kts | 205° |
| 2026-04-30 03:42 | 40.69461 | -74.16725 | 29 ft | 129 kts | 206° |
| 2026-04-30 03:42 | 40.68516 | -74.17342 | 328 ft | 160 kts | 205° |
| 2026-04-30 03:42 | 40.67541 | -74.18005 | 1171 ft | 162 kts | 205° |
| 2026-04-30 03:43 | 40.66416 | -74.18763 | 1570 ft | 197 kts | 201° |
| 2026-04-30 03:43 | 40.65052 | -74.19371 | 2208 ft | 216 kts | 195° |
| 2026-04-30 03:43 | 40.63555 | -74.20007 | 2601 ft | 233 kts | 199° |
| 2026-04-30 03:43 | 40.62050 | -74.20856 | 2594 ft | 237 kts | 203° |
| 2026-04-30 03:44 | 40.60629 | -74.21931 | 2502 ft | 238 kts | 219° |
| 2026-04-30 03:44 | 40.59709 | -74.23760 | 2500 ft | 247 kts | 247° |
| 2026-04-30 03:44 | 40.59599 | -74.26046 | 2561 ft | 259 kts | 276° |
| 2026-04-30 03:44 | 40.60027 | -74.27528 | 2741 ft | 267 kts | 296° |
| 2026-04-30 03:45 | 40.61324 | -74.29316 | 3045 ft | 277 kts | 323° |
| 2026-04-30 03:45 | 40.63142 | -74.30175 | 3355 ft | 282 kts | 352° |
| 2026-04-30 03:45 | 40.65685 | -74.29571 | 4021 ft | 285 kts | 23° |
| 2026-04-30 03:45 | 40.67486 | -74.28468 | 4583 ft | 287 kts | 27° |
| 2026-04-30 03:46 | 40.68700 | -74.27673 | 4964 ft | 289 kts | 27° |
| 2026-04-30 03:46 | 40.70505 | -74.26474 | 5494 ft | 292 kts | 27° |
| 2026-04-30 03:46 | 40.72297 | -74.25283 | 6050 ft | 294 kts | 27° |
| 2026-04-30 03:46 | 40.74132 | -74.24060 | 6589 ft | 297 kts | 27° |
| 2026-04-30 03:47 | 40.75903 | -74.22657 | 7129 ft | 298 kts | 42° |
| 2026-04-30 03:47 | 40.77187 | -74.20538 | 7687 ft | 296 kts | 63° |
| 2026-04-30 03:47 | 40.78143 | -74.18116 | 8236 ft | 299 kts | 67° |
| 2026-04-30 03:47 | 40.79050 | -74.15631 | 8818 ft | 303 kts | 68° |
| 2026-04-30 03:48 | 40.80040 | -74.13152 | 9380 ft | 308 kts | 59° |
| 2026-04-30 03:48 | 40.81256 | -74.10792 | 9934 ft | 315 kts | 56° |
| 2026-04-30 03:48 | 40.82588 | -74.08411 | 10405 ft | 333 kts | 54° |
| 2026-04-30 03:48 | 40.84038 | -74.05935 | 10803 ft | 356 kts | 52° |
| 2026-04-30 03:49 | 40.85617 | -74.03304 | 11305 ft | 374 kts | 52° |
| 2026-04-30 03:49 | 40.87263 | -74.00577 | 12053 ft | 383 kts | 51° |
| 2026-04-30 03:49 | 40.88932 | -73.97807 | 12877 ft | 388 kts | 52° |
| 2026-04-30 03:49 | 40.90623 | -73.94984 | 13719 ft | 395 kts | 51° |
| 2026-04-30 03:50 | 40.92338 | -73.92108 | 14439 ft | 401 kts | 51° |
| 2026-04-30 03:50 | 40.94067 | -73.89197 | 15196 ft | 405 kts | 51° |
| 2026-04-30 03:50 | 40.95816 | -73.86246 | 15962 ft | 410 kts | 51° |
| 2026-04-30 03:50 | 40.97582 | -73.83259 | 16712 ft | 414 kts | 51° |
| 2026-04-30 03:51 | 40.99365 | -73.80240 | 17484 ft | 418 kts | 51° |
| 2026-04-30 03:51 | 41.01166 | -73.77189 | 18225 ft | 423 kts | 51° |
| 2026-04-30 03:51 | 41.02963 | -73.74141 | 18887 ft | 427 kts | 51° |
| 2026-04-30 03:51 | 41.04795 | -73.71033 | 19678 ft | 428 kts | 51° |
| 2026-04-30 03:52 | 41.06626 | -73.67920 | 20467 ft | 430 kts | 51° |
| 2026-04-30 03:52 | 41.08474 | -73.64775 | 21171 ft | 435 kts | 51° |
| 2026-04-30 03:52 | 41.10344 | -73.61591 | 21818 ft | 440 kts | 52° |
| 2026-04-30 03:52 | 41.12233 | -73.58371 | 22474 ft | 446 kts | 52° |
| 2026-04-30 03:53 | 41.14146 | -73.55106 | 23123 ft | 451 kts | 52° |
| 2026-04-30 03:53 | 41.16081 | -73.51800 | 23730 ft | 456 kts | 52° |
| 2026-04-30 03:53 | 41.18009 | -73.48503 | 24288 ft | 460 kts | 52° |
| 2026-04-30 03:53 | 41.19978 | -73.45132 | 24880 ft | 464 kts | 52° |
| 2026-04-30 03:54 | 41.21960 | -73.41736 | 25540 ft | 465 kts | 53° |
| 2026-04-30 03:54 | 41.23944 | -73.38331 | 26127 ft | 469 kts | 53° |
| 2026-04-30 03:54 | 41.25950 | -73.34883 | 26657 ft | 474 kts | 53° |
| 2026-04-30 03:54 | 41.27976 | -73.31397 | 27180 ft | 479 kts | 53° |
| 2026-04-30 03:55 | 41.30021 | -73.27876 | 27686 ft | 483 kts | 53° |
| 2026-04-30 03:55 | 41.32083 | -73.24322 | 28209 ft | 487 kts | 53° |
| 2026-04-30 03:55 | 41.34163 | -73.20733 | 28729 ft | 492 kts | 53° |
| 2026-04-30 03:55 | 41.36254 | -73.17121 | 29232 ft | 496 kts | 53° |
| 2026-04-30 03:56 | 41.38245 | -73.13431 | 29732 ft | 499 kts | 59° |
| 2026-04-30 03:56 | 41.40086 | -73.09490 | 30189 ft | 503 kts | 60° |
| 2026-04-30 03:56 | 41.41897 | -73.05482 | 30595 ft | 507 kts | 60° |
| 2026-04-30 03:56 | 41.43695 | -73.01428 | 31019 ft | 509 kts | 61° |
| 2026-04-30 03:57 | 41.45488 | -72.97349 | 31433 ft | 512 kts | 61° |
| 2026-04-30 03:57 | 41.47290 | -72.93235 | 31778 ft | 515 kts | 61° |
| 2026-04-30 03:57 | 41.49104 | -72.89093 | 32137 ft | 518 kts | 61° |
| 2026-04-30 03:57 | 41.50928 | -72.84931 | 32538 ft | 521 kts | 61° |
| 2026-04-30 03:58 | 41.52735 | -72.80807 | 32908 ft | 523 kts | 61° |
| 2026-04-30 03:58 | 41.54574 | -72.76611 | 33290 ft | 525 kts | 61° |
| 2026-04-30 03:58 | 41.56416 | -72.72405 | 33625 ft | 527 kts | 61° |
| 2026-04-30 03:58 | 41.58269 | -72.68168 | 34027 ft | 527 kts | 61° |
| 2026-04-30 03:59 | 41.60109 | -72.63955 | 34400 ft | 526 kts | 61° |
| 2026-04-30 03:59 | 41.61952 | -72.59730 | 34721 ft | 527 kts | 60° |
| 2026-04-30 03:59 | 41.63797 | -72.55493 | 35027 ft | 528 kts | 60° |
| 2026-04-30 03:59 | 41.65655 | -72.51258 | 35356 ft | 528 kts | 59° |
| 2026-04-30 04:00 | 41.67546 | -72.47044 | 35681 ft | 529 kts | 59° |
| 2026-04-30 04:00 | 41.69452 | -72.42838 | 35946 ft | 530 kts | 58° |
| 2026-04-30 04:00 | 41.71344 | -72.38672 | 36252 ft | 531 kts | 58° |
| 2026-04-30 04:00 | 41.73258 | -72.34444 | 36576 ft | 531 kts | 58° |
| 2026-04-30 04:01 | 41.75168 | -72.30212 | 36900 ft | 531 kts | 58° |
| 2026-04-30 04:01 | 41.77072 | -72.25974 | 37218 ft | 531 kts | 58° |
| 2026-04-30 04:01 | 41.78972 | -72.21737 | 37575 ft | 529 kts | 58° |
| 2026-04-30 04:01 | 41.80858 | -72.17518 | 37941 ft | 528 kts | 58° |
| 2026-04-30 04:02 | 41.82741 | -72.13296 | 38306 ft | 527 kts | 58° |
| 2026-04-30 04:02 | 41.84613 | -72.09094 | 38733 ft | 523 kts | 58° |
| 2026-04-30 04:02 | 41.86449 | -72.04965 | 38989 ft | 522 kts | 58° |
| 2026-04-30 04:02 | 41.88306 | -72.00785 | 39172 ft | 523 kts | 58° |
| 2026-04-30 04:03 | 41.90170 | -71.96586 | 39353 ft | 524 kts | 58° |
| 2026-04-30 04:03 | 41.92034 | -71.92381 | 39551 ft | 524 kts | 58° |
| 2026-04-30 04:03 | 41.94031 | -71.88291 | 39683 ft | 524 kts | 51° |
| 2026-04-30 04:03 | 41.96439 | -71.84626 | 39816 ft | 523 kts | 41° |
| 2026-04-30 04:04 | 41.99250 | -71.81554 | 39997 ft | 520 kts | 31° |
| 2026-04-30 04:04 | 42.02224 | -71.78902 | 40156 ft | 520 kts | 30° |
| 2026-04-30 04:04 | 42.05323 | -71.76306 | 40356 ft | 519 kts | 28° |
| 2026-04-30 04:04 | 42.08369 | -71.73831 | 40561 ft | 518 kts | 28° |
| 2026-04-30 04:05 | 42.11462 | -71.71341 | 40750 ft | 518 kts | 28° |
| 2026-04-30 04:05 | 42.14553 | -71.68850 | 40924 ft | 518 kts | 28° |
| 2026-04-30 04:05 | 42.20736 | -71.63824 | 40949 ft | 519 kts | 28° |
| 2026-04-30 04:06 | 42.26914 | -71.58752 | 40950 ft | 520 kts | 28° |
| 2026-04-30 04:06 | 42.33082 | -71.53663 | 40969 ft | 520 kts | 28° |
| 2026-04-30 04:07 | 42.39228 | -71.48582 | 40952 ft | 521 kts | 28° |
| 2026-04-30 04:08 | 42.48506 | -71.40892 | 40941 ft | 522 kts | 28° |
| 2026-04-30 04:08 | 42.54690 | -71.35751 | 40940 ft | 521 kts | 28° |
| 2026-04-30 04:09 | 42.60863 | -71.30608 | 40944 ft | 520 kts | 28° |
| 2026-04-30 04:09 | 42.66988 | -71.25493 | 40973 ft | 520 kts | 28° |
| 2026-04-30 04:10 | 42.73136 | -71.20347 | 40974 ft | 518 kts | 29° |
| 2026-04-30 04:10 | 42.79273 | -71.15197 | 40975 ft | 518 kts | 29° |
| 2026-04-30 04:11 | 42.85399 | -71.10045 | 40989 ft | 518 kts | 29° |
| 2026-04-30 04:11 | 42.91474 | -71.04924 | 40969 ft | 516 kts | 29° |
| 2026-04-30 04:12 | 42.97578 | -70.99767 | 40953 ft | 516 kts | 29° |
| 2026-04-30 04:12 | 43.03669 | -70.94607 | 40951 ft | 515 kts | 30° |
| 2026-04-30 04:13 | 43.09764 | -70.89433 | 40952 ft | 515 kts | 30° |
| 2026-04-30 04:13 | 43.15812 | -70.84283 | 40953 ft | 515 kts | 29° |
| 2026-04-30 04:14 | 43.21888 | -70.79101 | 40962 ft | 515 kts | 29° |
| 2026-04-30 04:14 | 43.27967 | -70.73904 | 40971 ft | 515 kts | 29° |
| 2026-04-30 04:15 | 43.34044 | -70.68697 | 41003 ft | 515 kts | 30° |
| 2026-04-30 04:15 | 43.39886 | -70.63012 | 40982 ft | 518 kts | 41° |
| 2026-04-30 04:16 | 43.44286 | -70.55271 | 40981 ft | 520 kts | 62° |
| 2026-04-30 04:16 | 43.47295 | -70.46213 | 40988 ft | 521 kts | 67° |
| 2026-04-30 04:17 | 43.50050 | -70.36970 | 40989 ft | 521 kts | 68° |
| 2026-04-30 04:17 | 43.52778 | -70.27732 | 41009 ft | 520 kts | 67° |
| 2026-04-30 04:18 | 43.55506 | -70.18583 | 40996 ft | 520 kts | 67° |
| 2026-04-30 04:18 | 43.58264 | -70.09365 | 40991 ft | 520 kts | 67° |
| 2026-04-30 04:19 | 43.61018 | -70.00140 | 41001 ft | 520 kts | 67° |
| 2026-04-30 04:19 | 43.63758 | -69.90921 | 41005 ft | 518 kts | 67° |
| 2026-04-30 04:20 | 43.66463 | -69.81782 | 41015 ft | 518 kts | 67° |
| 2026-04-30 04:20 | 43.69180 | -69.72570 | 41014 ft | 518 kts | 67° |
| 2026-04-30 04:21 | 43.71890 | -69.63351 | 41015 ft | 518 kts | 68° |
| 2026-04-30 04:21 | 43.74550 | -69.54117 | 41006 ft | 517 kts | 69° |
| 2026-04-30 04:22 | 43.77105 | -69.44827 | 41012 ft | 516 kts | 69° |
| 2026-04-30 04:22 | 43.79647 | -69.35606 | 41011 ft | 516 kts | 69° |
| 2026-04-30 04:23 | 43.82200 | -69.26341 | 41022 ft | 515 kts | 69° |
| 2026-04-30 04:23 | 43.84749 | -69.17062 | 41027 ft | 515 kts | 69° |
| 2026-04-30 04:24 | 43.87284 | -69.07802 | 41000 ft | 513 kts | 69° |
| 2026-04-30 04:24 | 43.89787 | -68.98626 | 41004 ft | 512 kts | 69° |
| 2026-04-30 04:25 | 43.92301 | -68.89375 | 41003 ft | 512 kts | 69° |
| 2026-04-30 04:25 | 43.94805 | -68.80125 | 40999 ft | 512 kts | 69° |
| 2026-04-30 04:26 | 43.97298 | -68.70882 | 41006 ft | 511 kts | 69° |
| 2026-04-30 04:26 | 43.99767 | -68.61688 | 41011 ft | 511 kts | 70° |
| 2026-04-30 04:27 | 44.02243 | -68.52437 | 41014 ft | 511 kts | 70° |
| 2026-04-30 04:27 | 44.04716 | -68.43159 | 41002 ft | 511 kts | 70° |
| 2026-04-30 04:28 | 44.07178 | -68.33889 | 41040 ft | 512 kts | 70° |
| 2026-04-30 04:28 | 44.09622 | -68.24648 | 41033 ft | 513 kts | 70° |
| 2026-04-30 04:29 | 44.12078 | -68.15329 | 41043 ft | 513 kts | 70° |
| 2026-04-30 04:29 | 44.14529 | -68.05990 | 41031 ft | 513 kts | 70° |
| 2026-04-30 04:30 | 44.16972 | -67.96644 | 41026 ft | 513 kts | 70° |
| 2026-04-30 04:30 | 44.19409 | -67.87285 | 41032 ft | 515 kts | 70° |
| 2026-04-30 04:31 | 44.21833 | -67.77941 | 41038 ft | 518 kts | 70° |
| 2026-04-30 04:31 | 44.24274 | -67.68491 | 41037 ft | 518 kts | 70° |
| 2026-04-30 04:32 | 44.26705 | -67.59042 | 41046 ft | 518 kts | 71° |
| 2026-04-30 04:32 | 44.29131 | -67.49577 | 41045 ft | 518 kts | 71° |
| 2026-04-30 04:33 | 44.31534 | -67.40162 | 41039 ft | 519 kts | 70° |
| 2026-04-30 04:33 | 44.33949 | -67.30660 | 41057 ft | 520 kts | 71° |
| 2026-04-30 04:34 | 44.36364 | -67.21122 | 41060 ft | 521 kts | 71° |
| 2026-04-30 04:34 | 44.38771 | -67.11574 | 41064 ft | 521 kts | 71° |
| 2026-04-30 04:35 | 44.41152 | -67.02082 | 41057 ft | 521 kts | 71° |
| 2026-04-30 04:35 | 44.43024 | -66.92318 | 41052 ft | 520 kts | 77° |
| 2026-04-30 04:36 | 44.44707 | -66.82473 | 41049 ft | 520 kts | 77° |
| 2026-04-30 04:36 | 44.46389 | -66.72627 | 41049 ft | 520 kts | 77° |
| 2026-04-30 04:37 | 44.48055 | -66.62842 | 40941 ft | 520 kts | 77° |
| 2026-04-30 04:37 | 44.48888 | -66.57927 | 40706 ft | 520 kts | 77° |
| 2026-04-30 04:37 | 44.49722 | -66.52999 | 40473 ft | 520 kts | 77° |
| 2026-04-30 04:37 | 44.50554 | -66.48068 | 40179 ft | 519 kts | 77° |
| 2026-04-30 04:38 | 44.51380 | -66.43154 | 39601 ft | 518 kts | 77° |
| 2026-04-30 04:38 | 44.52205 | -66.38237 | 38962 ft | 519 kts | 76° |
| 2026-04-30 04:38 | 44.53030 | -66.33308 | 38204 ft | 520 kts | 76° |
| 2026-04-30 04:38 | 44.53852 | -66.28374 | 37487 ft | 519 kts | 76° |
| 2026-04-30 04:39 | 44.54670 | -66.23457 | 36793 ft | 517 kts | 76° |
| 2026-04-30 04:39 | 44.55472 | -66.18621 | 36100 ft | 515 kts | 76° |
| 2026-04-30 04:39 | 44.56281 | -66.13731 | 35360 ft | 514 kts | 76° |
| 2026-04-30 04:39 | 44.57086 | -66.08845 | 34583 ft | 514 kts | 76° |
| 2026-04-30 04:40 | 44.57889 | -66.03968 | 33764 ft | 514 kts | 76° |
| 2026-04-30 04:40 | 44.58690 | -65.99079 | 32818 ft | 514 kts | 75° |
| 2026-04-30 04:40 | 44.59489 | -65.94189 | 31924 ft | 514 kts | 75° |
| 2026-04-30 04:40 | 44.60287 | -65.89293 | 31008 ft | 515 kts | 75° |
| 2026-04-30 04:41 | 44.61084 | -65.84388 | 30120 ft | 516 kts | 74° |
| 2026-04-30 04:41 | 44.61875 | -65.79512 | 29428 ft | 509 kts | 74° |
| 2026-04-30 04:41 | 44.62640 | -65.74776 | 28807 ft | 502 kts | 75° |
| 2026-04-30 04:41 | 44.63405 | -65.70026 | 28173 ft | 496 kts | 75° |
| 2026-04-30 04:42 | 44.64160 | -65.65332 | 27541 ft | 490 kts | 75° |
| 2026-04-30 04:42 | 44.64905 | -65.60686 | 26909 ft | 485 kts | 75° |
| 2026-04-30 04:42 | 44.65641 | -65.56087 | 26291 ft | 480 kts | 76° |
| 2026-04-30 04:42 | 44.66366 | -65.51534 | 25693 ft | 475 kts | 76° |
| 2026-04-30 04:43 | 44.67083 | -65.47025 | 25083 ft | 470 kts | 76° |
| 2026-04-30 04:43 | 44.67789 | -65.42569 | 24479 ft | 466 kts | 76° |
| 2026-04-30 04:43 | 44.68489 | -65.38143 | 23865 ft | 462 kts | 76° |
| 2026-04-30 04:43 | 44.69171 | -65.33821 | 23211 ft | 457 kts | 77° |
| 2026-04-30 04:44 | 44.69852 | -65.29487 | 22587 ft | 451 kts | 76° |
| 2026-04-30 04:44 | 44.70522 | -65.25210 | 21984 ft | 445 kts | 77° |
| 2026-04-30 04:44 | 44.71182 | -65.20986 | 21379 ft | 440 kts | 77° |
| 2026-04-30 04:44 | 44.71834 | -65.16808 | 20789 ft | 435 kts | 77° |
| 2026-04-30 04:45 | 44.72479 | -65.12669 | 20182 ft | 431 kts | 77° |
| 2026-04-30 04:45 | 44.73115 | -65.08571 | 19573 ft | 427 kts | 77° |
| 2026-04-30 04:45 | 44.73737 | -65.04554 | 18971 ft | 424 kts | 77° |
| 2026-04-30 04:45 | 44.74360 | -65.00521 | 18357 ft | 421 kts | 77° |
| 2026-04-30 04:46 | 44.74981 | -64.96502 | 17704 ft | 417 kts | 78° |
| 2026-04-30 04:46 | 44.75590 | -64.92548 | 17082 ft | 412 kts | 78° |
| 2026-04-30 04:46 | 44.76191 | -64.88633 | 16413 ft | 408 kts | 79° |
| 2026-04-30 04:46 | 44.76785 | -64.84745 | 15736 ft | 405 kts | 79° |
| 2026-04-30 04:47 | 44.77373 | -64.80892 | 15096 ft | 400 kts | 79° |
| 2026-04-30 04:47 | 44.77952 | -64.77090 | 14546 ft | 395 kts | 79° |
| 2026-04-30 04:47 | 44.78525 | -64.73327 | 13991 ft | 390 kts | 79° |
| 2026-04-30 04:47 | 44.79078 | -64.69662 | 13367 ft | 387 kts | 79° |
| 2026-04-30 04:48 | 44.79634 | -64.65975 | 12775 ft | 383 kts | 80° |
| 2026-04-30 04:48 | 44.80183 | -64.62326 | 12177 ft | 379 kts | 79° |
| 2026-04-30 04:48 | 44.80727 | -64.58706 | 11590 ft | 376 kts | 79° |
| 2026-04-30 04:48 | 44.81265 | -64.55119 | 11099 ft | 370 kts | 79° |
| 2026-04-30 04:49 | 44.81785 | -64.51652 | 10947 ft | 353 kts | 79° |
| 2026-04-30 04:49 | 44.82278 | -64.48357 | 10816 ft | 336 kts | 79° |
| 2026-04-30 04:49 | 44.82748 | -64.45205 | 10687 ft | 321 kts | 79° |
| 2026-04-30 04:49 | 44.83182 | -64.42298 | 10531 ft | 295 kts | 79° |
| 2026-04-30 04:50 | 44.83595 | -64.39522 | 10426 ft | 285 kts | 79° |
| 2026-04-30 04:50 | 44.83992 | -64.36830 | 10303 ft | 276 kts | 79° |
| 2026-04-30 04:50 | 44.84382 | -64.34194 | 10047 ft | 275 kts | 79° |
| 2026-04-30 04:50 | 44.84775 | -64.31526 | 9768 ft | 285 kts | 79° |
| 2026-04-30 04:51 | 44.85183 | -64.28747 | 9700 ft | 292 kts | 80° |
| 2026-04-30 04:51 | 44.85593 | -64.25962 | 9271 ft | 291 kts | 79° |
| 2026-04-30 04:51 | 44.86004 | -64.23170 | 8798 ft | 290 kts | 79° |
| 2026-04-30 04:51 | 44.86345 | -64.20399 | 8457 ft | 285 kts | 87° |
| 2026-04-30 04:52 | 44.86368 | -64.17664 | 8187 ft | 282 kts | 94° |
| 2026-04-30 04:52 | 44.86290 | -64.14918 | 7868 ft | 279 kts | 94° |
| 2026-04-30 04:52 | 44.86205 | -64.12198 | 7609 ft | 278 kts | 94° |
| 2026-04-30 04:52 | 44.86123 | -64.09485 | 7313 ft | 275 kts | 94° |
| 2026-04-30 04:53 | 44.86044 | -64.06801 | 6992 ft | 273 kts | 94° |
| 2026-04-30 04:53 | 44.85966 | -64.04150 | 6679 ft | 270 kts | 94° |
| 2026-04-30 04:53 | 44.85888 | -64.01511 | 6364 ft | 268 kts | 93° |
| 2026-04-30 04:53 | 44.85813 | -63.98945 | 6210 ft | 256 kts | 93° |
| 2026-04-30 04:54 | 44.85742 | -63.96498 | 6078 ft | 244 kts | 93° |
| 2026-04-30 04:54 | 44.85673 | -63.94162 | 5927 ft | 233 kts | 93° |
| 2026-04-30 04:54 | 44.85607 | -63.91960 | 5796 ft | 224 kts | 93° |
| 2026-04-30 04:54 | 44.85542 | -63.89791 | 5643 ft | 220 kts | 93° |
| 2026-04-30 04:55 | 44.85477 | -63.87643 | 5438 ft | 218 kts | 94° |
| 2026-04-30 04:55 | 44.85446 | -63.85518 | 5209 ft | 218 kts | 88° |
| 2026-04-30 04:55 | 44.85846 | -63.83466 | 4988 ft | 220 kts | 62° |
| 2026-04-30 04:55 | 44.86914 | -63.81931 | 4782 ft | 223 kts | 35° |
| 2026-04-30 04:56 | 44.88258 | -63.80833 | 4561 ft | 224 kts | 31° |
| 2026-04-30 04:56 | 44.89584 | -63.79685 | 4352 ft | 223 kts | 38° |
| 2026-04-30 04:56 | 44.90731 | -63.78235 | 4141 ft | 221 kts | 50° |
| 2026-04-30 04:56 | 44.91622 | -63.76491 | 4004 ft | 219 kts | 62° |
| 2026-04-30 04:57 | 44.92231 | -63.74570 | 3724 ft | 218 kts | 73° |
| 2026-04-30 04:57 | 44.92555 | -63.72490 | 3369 ft | 217 kts | 85° |
| 2026-04-30 04:57 | 44.92699 | -63.70368 | 3030 ft | 216 kts | 87° |
| 2026-04-30 04:57 | 44.92814 | -63.68317 | 2910 ft | 204 kts | 88° |
| 2026-04-30 04:58 | 44.92924 | -63.66392 | 2786 ft | 190 kts | 88° |
| 2026-04-30 04:58 | 44.93028 | -63.64592 | 2636 ft | 178 kts | 88° |
| 2026-04-30 04:58 | 44.93128 | -63.62894 | 2443 ft | 171 kts | 89° |
| 2026-04-30 04:58 | 44.93224 | -63.61240 | 2113 ft | 172 kts | 90° |
| 2026-04-30 04:59 | 44.93106 | -63.59627 | 1901 ft | 160 kts | 112° |
| 2026-04-30 04:59 | 44.92685 | -63.58254 | 1668 ft | 144 kts | 127° |
| 2026-04-30 04:59 | 44.92057 | -63.57249 | 1482 ft | 130 kts | 131° |
| 2026-04-30 04:59 | 44.91541 | -63.56266 | 1283 ft | 120 kts | 124° |
| 2026-04-30 05:00 | 44.91092 | -63.55285 | 1108 ft | 119 kts | 123° |
| 2026-04-30 05:00 | 44.90638 | -63.54311 | 929 ft | 120 kts | 123° |
| 2026-04-30 05:00 | 44.90164 | -63.53341 | 749 ft | 120 kts | 124° |
| 2026-04-30 05:00 | 44.89691 | -63.52365 | 599 ft | 121 kts | 124° |
| 2026-04-30 05:01 | 44.89217 | -63.51425 | 472 ft | 118 kts | 125° |
| 2026-04-30 05:01 | 44.88770 | -63.50539 | 464 ft | 98 kts | 124° |
| 2026-04-30 05:01 | 44.88506 | -63.50013 | 463 ft | 40 kts | 126° |
| 2026-04-30 05:01 | 44.88392 | -63.49859 | 464 ft | 16 kts | 169° |
| 2026-04-30 05:02 | 44.88312 | -63.49914 | 466 ft | 13 kts | 227° |
| 2026-04-30 05:02 | 44.88314 | -63.50037 | 465 ft | 13 kts | 298° |
| 2026-04-30 05:02 | 44.88361 | -63.50165 | 465 ft | 16 kts | 284° |
| 2026-04-30 05:02 | 44.88360 | -63.50343 | 464 ft | 20 kts | 265° |
| 2026-04-30 05:03 | 44.88343 | -63.50601 | 464 ft | 35 kts | 264° |
| 2026-04-30 05:03 | 44.88323 | -63.50922 | 464 ft | 25 kts | 273° |
| 2026-04-30 05:03 | 44.88377 | -63.51126 | 464 ft | 21 kts | 310° |
| 2026-04-30 05:03 | 44.88481 | -63.51191 | 464 ft | 17 kts | 344° |
| 2026-04-30 05:04 | 44.88603 | -63.51237 | 463 ft | 19 kts | 348° |
| 2026-04-30 05:04 | 44.88688 | -63.51260 | 463 ft | 6 kts | 316° |
| 2026-04-30 05:04 | 44.88681 | -63.51315 | 463 ft | 7 kts | 243° |
| 2026-04-30 05:04 | 44.88648 | -63.51364 | 463 ft | 3 kts | 209° |
| 2026-04-30 05:05 | 44.88646 | -63.51366 | 463 ft | 0 kts | 209° |